createdAt,value
2022-07-30T00:01:37.011Z,5.97
2022-07-30T00:04:04.617Z,4.95
2022-07-30T00:06:31.868Z,8.23
2022-07-30T00:08:59.312Z,7.55
2022-07-30T00:11:28.076Z,7.03
2022-07-30T00:13:56.021Z,6.38
2022-07-30T00:16:23.695Z,6.88
2022-07-30T00:18:51.584Z,7.75
2022-07-30T00:21:31.489Z,7.10
2022-07-30T00:24:04.282Z,11.73
2022-07-30T00:26:31.818Z,5.57
2022-07-30T00:28:59.925Z,7.78
2022-07-30T00:31:29.285Z,7.78
2022-07-30T00:33:57.086Z,8.50
2022-07-30T00:36:24.510Z,7.72
2022-07-30T00:38:52.373Z,6.60
2022-07-30T00:41:20.326Z,7.10
2022-07-30T00:43:48.000Z,7.25
2022-07-30T00:46:15.732Z,7.78
2022-07-30T00:48:43.358Z,6.68
2022-07-30T00:51:11.006Z,7.05
2022-07-30T00:53:38.603Z,6.60
2022-07-30T00:56:06.333Z,6.95
2022-07-30T00:58:33.814Z,7.22
2022-07-30T01:01:01.227Z,7.78
2022-07-30T01:03:29.093Z,7.80
2022-07-30T01:05:56.477Z,5.78
2022-07-30T01:08:23.804Z,6.88
2022-07-30T01:10:52.418Z,5.03
2022-07-30T01:13:20.088Z,8.32
2022-07-30T01:15:47.987Z,5.93
2022-07-30T01:18:15.973Z,8.77
2022-07-30T01:20:57.665Z,6.72
2022-07-30T01:23:35.225Z,6.07
2022-07-30T01:26:10.984Z,7.63
2022-07-30T01:28:45.400Z,6.25
2022-07-30T01:31:13.996Z,7.95
2022-07-30T01:33:45.997Z,5.63
2022-07-30T01:36:16.504Z,5.72
2022-07-30T01:38:46.338Z,12.50
2022-07-30T01:43:43.078Z,6.30
2022-07-30T01:46:11.515Z,7.53
2022-07-30T01:48:41.289Z,6.68
2022-07-30T01:51:13.131Z,6.65
2022-07-30T01:53:46.138Z,9.45
2022-07-30T01:56:16.679Z,9.23
2022-07-30T01:58:46.830Z,8.07
2022-07-30T02:01:20.837Z,10.85
2022-07-30T02:03:49.018Z,6.05
2022-07-30T02:06:26.531Z,8.70
2022-07-30T02:08:58.664Z,5.70
2022-07-30T02:11:47.227Z,8.15
2022-07-30T02:14:25.068Z,10.88
2022-07-30T02:16:56.476Z,10.82
2022-07-30T02:19:32.606Z,9.80
2022-07-30T02:22:08.749Z,12.07
2022-07-30T02:24:38.661Z,6.93
2022-07-30T02:27:38.331Z,12.90
2022-07-30T02:30:06.587Z,14.48
2022-07-30T02:32:40.959Z,9.80
2022-07-30T02:35:16.003Z,9.80
2022-07-30T02:37:45.261Z,7.70
2022-07-30T02:40:18.973Z,9.52
2022-07-30T02:42:49.252Z,11.73
2022-07-30T02:45:21.988Z,10.10
2022-07-30T02:47:53.536Z,7.57
2022-07-30T02:50:21.082Z,7.43
2022-07-30T02:52:49.789Z,8.40
2022-07-30T02:55:18.575Z,8.55
2022-07-30T02:57:48.528Z,6.90
2022-07-30T03:00:15.745Z,10.57
2022-07-30T03:02:46.011Z,5.18
2022-07-30T03:05:15.859Z,7.15
2022-07-30T03:07:43.662Z,6.22
2022-07-30T03:10:12.253Z,11.43
2022-07-30T03:12:41.086Z,9.57
2022-07-30T03:15:08.674Z,7.35
2022-07-30T03:17:39.451Z,6.85
2022-07-30T03:20:12.532Z,6.88
2022-07-30T03:22:49.837Z,16.48
2022-07-30T03:25:23.632Z,6.95
2022-07-30T03:27:53.136Z,6.88
2022-07-30T03:30:21.539Z,20.42
2022-07-30T03:32:49.064Z,9.32
2022-07-30T03:35:17.206Z,6.82
2022-07-30T03:37:47.022Z,10.95
2022-07-30T03:40:15.563Z,9.95
2022-07-30T03:42:43.284Z,10.65
2022-07-30T03:45:13.746Z,8.05
2022-07-30T03:47:43.064Z,8.60
2022-07-30T03:50:12.610Z,6.60
2022-07-30T03:52:41.541Z,8.20
2022-07-30T03:55:15.911Z,9.75
2022-07-30T03:57:49.045Z,11.05
2022-07-30T04:00:18.293Z,8.70
2022-07-30T04:02:50.698Z,7.55
2022-07-30T04:05:41.209Z,9.88
2022-07-30T04:08:11.403Z,9.13
2022-07-30T04:10:39.765Z,9.50
2022-07-30T04:13:33.369Z,9.80
2022-07-30T04:16:38.795Z,8.43
2022-07-30T04:19:03.736Z,9.88
2022-07-30T04:21:33.811Z,10.60
2022-07-30T04:24:04.410Z,13.82
2022-07-30T04:26:35.740Z,10.13
2022-07-30T04:29:07.505Z,9.90
2022-07-30T04:31:40.024Z,11.77
2022-07-30T04:34:27.198Z,11.02
2022-07-30T04:36:54.957Z,15.70
2022-07-30T04:39:22.327Z,11.30
2022-07-30T04:41:50.257Z,11.43
2022-07-30T04:44:32.812Z,9.70
2022-07-30T04:47:25.656Z,7.35
2022-07-30T04:50:27.653Z,10.40
2022-07-30T04:52:56.433Z,11.00
2022-07-30T04:55:35.895Z,8.90
2022-07-30T04:58:04.175Z,9.93
2022-07-30T05:00:40.488Z,11.98
2022-07-30T05:03:13.367Z,13.60
2022-07-30T05:05:43.909Z,7.95
2022-07-30T05:08:12.850Z,9.80
2022-07-30T05:10:41.087Z,13.18
2022-07-30T05:13:14.326Z,9.43
2022-07-30T05:15:44.762Z,9.85
2022-07-30T05:18:13.976Z,12.40
2022-07-30T05:20:43.929Z,6.70
2022-07-30T05:23:22.518Z,15.80
2022-07-30T05:26:10.430Z,10.48
2022-07-30T05:28:45.154Z,10.52
2022-07-30T05:31:20.075Z,8.07
2022-07-30T05:33:56.892Z,13.35
2022-07-30T05:36:32.691Z,13.45
2022-07-30T05:39:00.770Z,10.20
2022-07-30T05:41:49.990Z,11.18
2022-07-30T05:44:35.986Z,10.38
2022-07-30T05:47:03.716Z,11.93
2022-07-30T05:52:10.083Z,10.48
2022-07-30T05:54:37.765Z,16.60
2022-07-30T05:57:23.659Z,11.52
2022-07-30T05:59:51.143Z,11.15
2022-07-30T06:02:24.502Z,14.23
2022-07-30T06:05:24.018Z,13.73
2022-07-30T06:07:51.602Z,13.25
2022-07-30T06:10:21.956Z,11.35
2022-07-30T06:12:49.433Z,11.82
2022-07-30T06:15:25.579Z,9.13
2022-07-30T06:18:02.001Z,10.82
2022-07-30T06:20:51.837Z,8.10
2022-07-30T06:23:38.345Z,6.97
2022-07-30T06:26:23.041Z,10.90
2022-07-30T06:28:50.959Z,10.82
2022-07-30T06:31:24.944Z,9.30
2022-07-30T06:33:53.042Z,8.85
2022-07-30T06:36:20.652Z,10.02
2022-07-30T06:38:59.593Z,13.32
2022-07-30T06:41:41.478Z,11.68
2022-07-30T06:44:09.393Z,9.45
2022-07-30T06:46:55.385Z,10.95
2022-07-30T06:49:26.358Z,9.73
2022-07-30T06:51:54.480Z,9.63
2022-07-30T06:54:21.988Z,10.23
2022-07-30T06:57:12.037Z,9.75
2022-07-30T06:59:56.824Z,10.57
2022-07-30T07:02:42.751Z,11.65
2022-07-30T07:05:14.447Z,10.73
2022-07-30T07:07:56.471Z,17.25
2022-07-30T07:10:27.975Z,8.30
2022-07-30T07:13:04.461Z,10.23
2022-07-30T07:15:36.749Z,8.50
2022-07-30T07:18:07.187Z,9.93
2022-07-30T07:20:39.325Z,8.10
2022-07-30T07:23:12.450Z,12.95
2022-07-30T07:25:41.490Z,7.72
2022-07-30T07:28:12.721Z,8.27
2022-07-30T07:30:44.458Z,10.15
2022-07-30T07:33:15.441Z,10.77
2022-07-30T07:35:49.566Z,8.02
2022-07-30T07:38:23.091Z,8.57
2022-07-30T07:40:51.726Z,7.15
2022-07-30T07:43:19.135Z,6.85
2022-07-30T07:45:46.646Z,7.72
2022-07-30T07:48:13.918Z,9.10
2022-07-30T07:50:59.890Z,9.73
2022-07-30T07:53:30.471Z,10.02
2022-07-30T07:55:58.813Z,12.68
2022-07-30T07:58:26.848Z,6.65
2022-07-30T08:00:58.479Z,9.43
2022-07-30T08:03:45.839Z,9.90
2022-07-30T08:06:31.702Z,8.40
2022-07-30T08:09:17.711Z,9.57
2022-07-30T08:12:05.000Z,9.00
2022-07-30T08:14:52.858Z,4.32
2022-07-30T08:17:49.489Z,9.27
2022-07-30T08:20:22.513Z,6.38
2022-07-30T08:22:50.051Z,9.20
2022-07-30T08:25:22.313Z,10.23
2022-07-30T08:27:52.621Z,7.22
2022-07-30T08:30:20.700Z,6.35
2022-07-30T08:32:48.748Z,6.10
2022-07-30T08:35:16.308Z,7.22
2022-07-30T08:37:43.853Z,11.55
2022-07-30T08:40:11.542Z,8.05
2022-07-30T08:42:50.559Z,8.20
2022-07-30T08:45:18.129Z,9.30
2022-07-30T08:47:47.227Z,10.40
2022-07-30T08:50:21.809Z,5.03
2022-07-30T08:53:08.491Z,8.23
2022-07-30T08:55:36.314Z,5.85
2022-07-30T08:58:05.414Z,6.57
2022-07-30T09:00:32.584Z,4.77
2022-07-30T09:03:00.253Z,5.93
2022-07-30T09:05:27.678Z,6.85
2022-07-30T09:07:55.426Z,6.65
2022-07-30T09:10:25.133Z,7.07
2022-07-30T09:12:52.647Z,6.78
2022-07-30T09:15:21.257Z,8.13
2022-07-30T09:17:57.103Z,7.72
2022-07-30T09:20:29.043Z,5.43
2022-07-30T09:25:46.087Z,6.72
2022-07-30T09:28:41.576Z,8.10
2022-07-30T09:31:14.770Z,6.75
2022-07-30T09:34:00.886Z,9.90
2022-07-30T09:36:46.767Z,7.32
2022-07-30T09:39:58.718Z,8.50
2022-07-30T09:42:47.219Z,8.93
2022-07-30T09:45:15.966Z,3.92
2022-07-30T09:47:48.650Z,5.10
2022-07-30T09:50:29.976Z,4.93
2022-07-30T09:53:12.188Z,5.07
2022-07-30T09:55:42.549Z,6.88
2022-07-30T09:58:12.626Z,5.13
2022-07-30T10:00:45.220Z,5.00
2022-07-30T10:03:41.616Z,7.35
2022-07-30T10:06:37.866Z,4.30
2022-07-30T10:09:29.130Z,11.13
2022-07-30T10:11:58.928Z,6.55
2022-07-30T10:14:32.169Z,4.47
2022-07-30T10:17:02.921Z,6.80
2022-07-30T10:19:40.468Z,9.98
2022-07-30T10:22:28.413Z,4.07
2022-07-30T10:25:23.213Z,3.45
2022-07-30T10:28:27.291Z,2.72
2022-07-30T10:30:55.666Z,3.08
2022-07-30T10:33:37.505Z,4.20
2022-07-30T10:36:10.410Z,6.10
2022-07-30T10:41:47.884Z,4.45
2022-07-30T10:44:47.663Z,5.47
2022-07-30T10:47:18.836Z,5.68
2022-07-30T10:50:29.337Z,4.57
2022-07-30T10:52:58.840Z,5.22
2022-07-30T10:55:38.857Z,3.80
2022-07-30T10:58:15.849Z,11.07
2022-07-30T11:00:53.664Z,5.50
2022-07-30T11:03:22.199Z,6.97
2022-07-30T11:05:51.462Z,8.75
2022-07-30T11:08:31.958Z,6.23
2022-07-30T11:10:59.866Z,4.03
2022-07-30T11:14:01.223Z,5.63
2022-07-30T11:16:34.208Z,3.63
2022-07-30T11:22:24.777Z,7.35
2022-07-30T11:24:52.696Z,3.95
2022-07-30T11:27:36.784Z,11.82
2022-07-30T11:30:29.786Z,9.68
2022-07-30T11:33:22.333Z,4.97
2022-07-30T11:36:07.289Z,5.47
2022-07-30T11:38:52.793Z,9.50
2022-07-30T11:41:19.940Z,9.82
2022-07-30T11:43:47.348Z,4.82
2022-07-30T11:46:34.384Z,7.32
2022-07-30T11:49:08.601Z,3.10
2022-07-30T11:51:43.723Z,5.03
2022-07-30T11:54:12.200Z,12.18
2022-07-30T11:57:03.643Z,4.85
2022-07-30T11:59:31.888Z,5.05
2022-07-30T12:02:01.852Z,8.38
2022-07-30T12:04:29.806Z,9.35
2022-07-30T12:06:57.161Z,4.78
2022-07-30T12:09:28.831Z,4.07
2022-07-30T12:11:57.228Z,8.13
2022-07-30T12:14:24.683Z,7.15
2022-07-30T12:16:55.145Z,7.72
2022-07-30T12:19:22.706Z,5.60
2022-07-30T12:21:53.353Z,7.20
2022-07-30T12:24:26.392Z,6.22
2022-07-30T12:27:04.460Z,7.25
2022-07-30T12:29:32.536Z,6.50
2022-07-30T12:32:00.368Z,2.67
2022-07-30T12:34:28.474Z,8.65
2022-07-30T12:36:57.296Z,5.93
2022-07-30T12:39:26.387Z,5.88
2022-07-30T12:41:58.212Z,14.27
2022-07-30T12:44:42.438Z,7.15
2022-07-30T12:47:29.525Z,9.68
2022-07-30T12:50:01.467Z,12.38
2022-07-30T12:52:31.686Z,7.47
2022-07-30T12:55:02.735Z,6.80
2022-07-30T12:58:07.256Z,5.15
2022-07-30T13:00:44.305Z,2.42
2022-07-30T13:03:26.185Z,3.80
2022-07-30T13:05:57.349Z,9.88
2022-07-30T13:08:49.410Z,4.30
2022-07-30T13:11:17.344Z,6.28
2022-07-30T13:13:44.619Z,5.45
2022-07-30T13:16:12.587Z,6.35
2022-07-30T13:18:40.683Z,6.18
2022-07-30T13:21:09.356Z,3.50
2022-07-30T13:23:37.791Z,3.95
2022-07-30T13:26:06.568Z,1.90
2022-07-30T13:28:35.277Z,3.25
2022-07-30T13:31:03.194Z,3.00
2022-07-30T13:33:30.711Z,6.95
2022-07-30T13:35:58.224Z,4.32
2022-07-30T13:38:25.208Z,3.38
2022-07-30T13:40:52.749Z,3.25
2022-07-30T13:43:20.619Z,2.25
2022-07-30T13:45:48.667Z,4.28
2022-07-30T13:48:15.673Z,6.32
2022-07-30T13:50:43.533Z,4.60
2022-07-30T13:53:11.164Z,2.60
2022-07-30T13:55:39.708Z,2.10
2022-07-30T13:58:09.365Z,8.85
2022-07-30T14:00:37.384Z,5.82
2022-07-30T14:03:07.873Z,4.25
2022-07-30T14:05:42.064Z,6.85
2022-07-30T14:08:10.827Z,4.18
2022-07-30T14:10:39.833Z,4.55
2022-07-30T14:13:09.690Z,3.90
2022-07-30T14:15:37.245Z,3.83
2022-07-30T14:18:07.224Z,4.50
2022-07-30T14:20:34.643Z,4.50
2022-07-30T14:23:01.554Z,6.88
2022-07-30T14:25:29.320Z,4.03
2022-07-30T14:27:57.189Z,6.38
2022-07-30T14:30:25.135Z,4.47
2022-07-30T14:32:58.307Z,3.60
2022-07-30T14:35:28.359Z,4.07
2022-07-30T14:37:55.707Z,9.00
2022-07-30T14:40:23.441Z,4.80
2022-07-30T14:42:51.711Z,3.40
2022-07-30T14:45:19.335Z,6.57
2022-07-30T14:47:46.871Z,8.30
2022-07-30T14:50:14.678Z,100.35
2022-07-30T14:52:42.570Z,377.17
2022-07-30T14:55:11.014Z,384.95
2022-07-30T14:57:38.206Z,185.77
2022-07-30T15:00:09.571Z,83.13
2022-07-30T15:02:38.367Z,61.95
2022-07-30T15:05:06.094Z,43.63
2022-07-30T15:07:34.700Z,54.40
2022-07-30T15:10:02.650Z,33.20
2022-07-30T15:12:29.768Z,45.50
2022-07-30T15:14:57.372Z,20.42
2022-07-30T15:17:25.077Z,8.55
2022-07-30T15:19:53.278Z,8.35
2022-07-30T15:22:21.952Z,10.27
2022-07-30T15:24:49.477Z,34.72
2022-07-30T15:27:16.887Z,29.02
2022-07-30T15:29:44.618Z,19.70
2022-07-30T15:32:12.241Z,27.85
2022-07-30T15:34:39.639Z,13.48
2022-07-30T15:37:07.158Z,8.50
2022-07-30T15:39:34.959Z,24.85
2022-07-30T15:42:03.205Z,24.88
2022-07-30T15:44:30.976Z,14.00
2022-07-30T15:46:58.706Z,17.02
2022-07-30T15:49:26.312Z,18.05
2022-07-30T15:51:53.452Z,5.85
2022-07-30T15:54:24.732Z,9.43
2022-07-30T15:57:00.979Z,10.75
2022-07-30T15:59:29.232Z,4.25
2022-07-30T16:01:56.838Z,3.30
2022-07-30T16:04:31.210Z,4.60
2022-07-30T16:07:03.431Z,7.25
2022-07-30T16:09:31.015Z,4.55
2022-07-30T16:11:58.702Z,4.82
2022-07-30T16:14:26.365Z,5.63
2022-07-30T16:16:53.769Z,4.53
2022-07-30T16:19:20.886Z,5.10
2022-07-30T16:21:48.239Z,4.72
2022-07-30T16:24:15.662Z,7.20
2022-07-30T16:26:43.067Z,4.30
2022-07-30T16:29:13.722Z,4.72
2022-07-30T16:31:41.912Z,4.15
2022-07-30T16:34:09.387Z,4.97
2022-07-30T16:36:36.845Z,4.45
2022-07-30T16:39:05.093Z,11.55
2022-07-30T16:41:32.146Z,10.10
2022-07-30T16:43:59.621Z,5.70
2022-07-30T16:46:27.135Z,2.90
2022-07-30T16:48:54.287Z,5.13
2022-07-30T16:51:21.774Z,3.00
2022-07-30T16:53:49.322Z,3.95
2022-07-30T16:56:17.372Z,6.22
2022-07-30T16:58:44.748Z,3.30
2022-07-30T17:01:12.117Z,5.95
2022-07-30T17:03:39.626Z,4.70
2022-07-30T17:06:07.092Z,2.58
2022-07-30T17:08:34.607Z,4.38
2022-07-30T17:11:02.238Z,3.30
2022-07-30T17:13:36.457Z,4.03
2022-07-30T17:16:03.890Z,6.15
2022-07-30T17:18:31.185Z,4.82
2022-07-30T17:20:59.372Z,6.53
2022-07-30T17:23:26.690Z,3.33
2022-07-30T17:25:54.103Z,5.15
2022-07-30T17:28:26.794Z,3.53
2022-07-30T17:30:54.693Z,5.75
2022-07-30T17:33:22.013Z,4.90
2022-07-30T17:35:49.640Z,7.97
2022-07-30T17:38:16.672Z,11.98
2022-07-30T17:40:44.212Z,4.40
2022-07-30T17:43:13.912Z,8.70
2022-07-30T17:45:42.190Z,3.60
2022-07-30T17:48:09.376Z,6.50
2022-07-30T17:50:43.438Z,6.10
2022-07-30T17:53:10.786Z,3.47
2022-07-30T17:55:38.215Z,6.13
2022-07-30T17:58:05.826Z,3.38
2022-07-30T18:00:35.319Z,5.78
2022-07-30T18:03:03.642Z,3.75
2022-07-30T18:05:31.269Z,3.28
2022-07-30T18:07:58.680Z,3.70
2022-07-30T18:10:25.908Z,3.05
2022-07-30T18:12:53.118Z,3.72
2022-07-30T18:15:21.166Z,4.60
2022-07-30T18:17:48.552Z,3.33
2022-07-30T18:20:16.053Z,3.58
2022-07-30T18:22:43.531Z,12.65
2022-07-30T18:25:18.088Z,4.13
2022-07-30T18:27:47.217Z,2.97
2022-07-30T18:30:14.773Z,5.53
2022-07-30T18:32:42.297Z,3.55
2022-07-30T18:35:14.120Z,3.40
2022-07-30T18:37:44.849Z,3.65
2022-07-30T18:40:14.121Z,5.13
2022-07-30T18:42:41.944Z,3.90
2022-07-30T18:45:10.525Z,5.72
2022-07-30T18:47:37.626Z,3.83
2022-07-30T18:50:05.129Z,9.40
2022-07-30T18:52:32.857Z,4.43
2022-07-30T18:54:59.866Z,17.42
2022-07-30T18:57:27.619Z,4.05
2022-07-30T18:59:55.106Z,3.78
2022-07-30T19:02:25.890Z,6.00
2022-07-30T19:04:54.531Z,4.80
2022-07-30T19:07:24.104Z,3.80
2022-07-30T19:09:56.030Z,6.57
2022-07-30T19:12:23.595Z,3.83
2022-07-30T19:14:51.501Z,4.03
2022-07-30T19:17:18.774Z,4.50
2022-07-30T19:19:48.015Z,8.15
2022-07-30T19:22:17.415Z,6.65
2022-07-30T19:24:57.366Z,7.55
2022-07-30T19:27:24.531Z,9.90
2022-07-30T19:29:51.730Z,6.28
2022-07-30T19:32:19.111Z,6.38
2022-07-30T19:34:46.936Z,4.57
2022-07-30T19:37:14.590Z,5.43
2022-07-30T19:40:06.237Z,3.65
2022-07-30T19:42:30.641Z,5.20
2022-07-30T19:44:58.901Z,3.85
2022-07-30T19:47:29.237Z,4.80
2022-07-30T19:50:07.637Z,5.18
2022-07-30T19:52:37.710Z,4.43
2022-07-30T19:55:31.176Z,3.35
2022-07-30T19:57:56.705Z,4.38
2022-07-30T20:00:25.463Z,3.40
2022-07-30T20:02:53.109Z,4.18
2022-07-30T20:05:21.495Z,5.15
2022-07-30T20:07:52.767Z,6.45
2022-07-30T20:10:20.402Z,7.60
2022-07-30T20:12:52.244Z,3.65
2022-07-30T20:15:19.771Z,6.32
2022-07-30T20:17:47.496Z,3.95
2022-07-30T20:20:14.979Z,7.47
2022-07-30T20:22:42.399Z,10.10
2022-07-30T20:25:11.243Z,5.30
2022-07-30T20:27:43.439Z,5.28
2022-07-30T20:30:11.462Z,4.78
2022-07-30T20:32:43.519Z,3.50
2022-07-30T20:35:13.638Z,17.05
2022-07-30T20:37:54.910Z,5.22
2022-07-30T20:40:28.603Z,4.65
2022-07-30T20:42:57.167Z,5.35
2022-07-30T20:45:40.705Z,6.25
2022-07-30T20:50:56.698Z,4.10
2022-07-30T20:53:25.402Z,5.18
2022-07-30T20:56:04.468Z,4.80
2022-07-30T20:58:32.330Z,9.20
2022-07-30T21:01:01.313Z,4.45
2022-07-30T21:03:32.405Z,4.63
2022-07-30T21:05:59.984Z,5.57
2022-07-30T21:08:27.354Z,3.47
2022-07-30T21:10:55.453Z,5.55
2022-07-30T21:13:24.883Z,5.75
2022-07-30T21:16:02.326Z,5.65
2022-07-30T21:18:31.699Z,3.53
2022-07-30T21:21:00.513Z,3.88
2022-07-30T21:23:28.413Z,5.38
2022-07-30T21:26:00.428Z,3.67
2022-07-30T21:28:35.379Z,6.47
2022-07-30T21:31:07.006Z,5.13
2022-07-30T21:33:36.284Z,3.67
2022-07-30T21:36:03.770Z,4.43
2022-07-30T21:38:31.960Z,4.07
2022-07-30T21:41:01.846Z,7.60
2022-07-30T21:43:30.579Z,7.05
2022-07-30T21:46:03.654Z,4.05
2022-07-30T21:48:34.009Z,6.78
2022-07-30T21:51:01.783Z,6.55
2022-07-30T21:53:29.806Z,4.30
2022-07-30T21:56:13.071Z,4.93
2022-07-30T21:58:40.502Z,4.20
2022-07-30T22:01:17.545Z,9.85
2022-07-30T22:04:03.274Z,3.17
2022-07-30T22:06:34.810Z,3.63
2022-07-30T22:09:08.581Z,7.80
2022-07-30T22:11:46.151Z,4.57
2022-07-30T22:14:13.849Z,7.97
2022-07-30T22:16:46.180Z,6.72
2022-07-30T22:19:14.375Z,8.52
2022-07-30T22:21:42.261Z,4.95
2022-07-30T22:24:10.075Z,6.53
2022-07-30T22:26:56.953Z,4.07
2022-07-30T22:29:27.830Z,4.07
2022-07-30T22:32:02.875Z,4.13
2022-07-30T22:34:30.537Z,5.20
2022-07-30T22:36:58.565Z,5.03
2022-07-30T22:39:31.720Z,6.10
2022-07-30T22:42:00.827Z,5.68
2022-07-30T22:44:28.817Z,4.65
2022-07-30T22:46:56.644Z,6.15
2022-07-30T22:49:45.871Z,5.88
2022-07-30T22:52:29.193Z,7.22
2022-07-30T22:55:08.782Z,6.47
2022-07-30T22:57:38.367Z,4.13
2022-07-30T23:02:42.377Z,5.85
2022-07-30T23:05:11.073Z,6.28
2022-07-30T23:07:40.069Z,11.35
2022-07-30T23:10:17.400Z,7.93
2022-07-30T23:12:18.532Z,4.25
2022-07-30T23:12:49.223Z,9.15
2022-07-30T23:15:16.686Z,7.90
2022-07-30T23:17:44.057Z,8.20
2022-07-30T23:20:16.910Z,4.57
2022-07-30T23:22:44.243Z,6.25
2022-07-30T23:25:11.841Z,6.93
2022-07-30T23:27:39.812Z,3.95
2022-07-30T23:30:08.580Z,5.43
2022-07-30T23:32:36.825Z,4.38
2022-07-30T23:35:04.699Z,4.65
2022-07-30T23:37:48.668Z,5.72
2022-07-30T23:40:17.894Z,5.82
2022-07-30T23:42:45.352Z,6.00
2022-07-30T23:45:12.707Z,5.93
2022-07-30T23:47:56.535Z,7.43
2022-07-30T23:50:27.816Z,5.43
2022-07-30T23:52:55.779Z,8.10
2022-07-30T23:55:23.298Z,6.32
2022-07-30T23:57:50.661Z,4.70
